Time;durP1;ratioP1;P1;durP2;ratioP2;P2;SDS_P1;SDS_P2;PMS_P1;PMS_P2;Temp;Humidity;BMP_temperature;BMP_pressure;BME280_temperature;BME280_humidity;BME280_pressure;Samples;Min_cycle;Max_cycle;Signal;HPM_P1;HPM_P2
2022/07/11 00:01:10;;;;;;;1.52;1.42;;;;;;;20.56;50.61;97916.66;4917372;28;20590;-78
2022/07/11 00:03:36;;;;;;;1.73;1.48;;;;;;;20.53;50.57;97914.59;4931702;28;20211;-76
2022/07/11 00:06:01;;;;;;;1.80;1.70;;;;;;;20.51;50.40;97923.88;4931483;28;20180;-76
2022/07/11 00:08:27;;;;;;;2.50;1.60;;;;;;;20.47;50.90;97922.91;4964234;28;20200;-76
2022/07/11 00:10:53;;;;;;;2.25;1.90;;;;;;;20.42;50.96;97913.19;4948812;28;20188;-76
2022/07/11 00:13:19;;;;;;;1.73;1.60;;;;;;;20.41;50.84;97903.69;4947690;28;20630;-76
2022/07/11 00:15:44;;;;;;;2.80;1.65;;;;;;;20.39;51.14;97906.63;4947653;28;20184;-76
2022/07/11 00:18:10;;;;;;;2.10;1.75;;;;;;;20.34;51.26;97906.72;4947934;28;20180;-76
2022/07/11 00:20:35;;;;;;;2.40;1.70;;;;;;;20.31;51.45;97899.34;4947389;28;20764;-76
2022/07/11 00:23:01;;;;;;;1.80;1.70;;;;;;;20.33;51.17;97904.34;4963924;28;20266;-76
2022/07/11 00:25:26;;;;;;;1.20;1.10;;;;;;;20.32;51.00;97900.13;4947258;28;20216;-76
2022/07/11 00:27:51;;;;;;;1.92;1.58;;;;;;;20.31;51.20;97902.00;4930939;28;20271;-76
2022/07/11 00:30:17;;;;;;;3.33;1.50;;;;;;;20.32;51.17;97900.13;4947249;28;20750;-76
2022/07/11 00:32:43;;;;;;;1.88;1.50;;;;;;;20.33;51.19;97891.91;4947336;28;20784;-76
2022/07/11 00:35:08;;;;;;;1.92;1.65;;;;;;;20.32;51.44;97895.66;4946908;28;20358;-76
2022/07/11 00:37:34;;;;;;;1.95;1.40;;;;;;;20.31;51.06;97901.22;4949061;28;20258;-76
2022/07/11 00:39:59;;;;;;;2.40;1.98;;;;;;;20.27;51.26;97893.09;4946405;28;20200;-76
2022/07/11 00:42:25;;;;;;;2.60;2.15;;;;;;;20.30;51.09;97895.13;4914615;28;20196;-76
2022/07/11 00:44:50;;;;;;;2.75;1.48;;;;;;;20.29;50.97;97892.78;4942706;28;20765;-76
2022/07/11 00:47:16;;;;;;;2.13;1.92;;;;;;;20.24;51.03;97883.09;4946833;28;20200;-76
2022/07/11 00:49:41;;;;;;;1.70;1.60;;;;;;;20.23;51.24;97883.38;4946608;28;20341;-76
2022/07/11 00:52:08;;;;;;;2.58;2.13;;;;;;;20.18;51.59;97885.00;4930541;28;20104;-76
2022/07/11 00:54:34;;;;;;;2.63;1.83;;;;;;;20.17;51.58;97887.97;4913733;28;20183;-76
2022/07/11 00:56:59;;;;;;;3.33;1.60;;;;;;;20.14;51.50;97881.38;4947041;28;20214;-76
2022/07/11 00:59:25;;;;;;;1.65;1.48;;;;;;;20.16;51.80;97878.44;4961199;28;20433;-76
2022/07/11 01:01:51;;;;;;;2.55;1.70;;;;;;;20.15;51.98;97882.16;4949292;28;20268;-76
2022/07/11 01:04:16;;;;;;;3.70;1.92;;;;;;;20.13;51.81;97877.16;4945430;28;20173;-76
2022/07/11 01:06:41;;;;;;;2.72;1.70;;;;;;;20.14;52.03;97880.59;4962868;28;20204;-76
2022/07/11 01:09:07;;;;;;;2.20;1.73;;;;;;;20.15;51.88;97871.56;4945616;28;20172;-76
2022/07/11 01:11:33;;;;;;;3.28;1.60;;;;;;;20.11;51.90;97881.19;4929963;28;20277;-76
2022/07/11 01:13:58;;;;;;;2.42;2.00;;;;;;;20.08;51.97;97871.94;4946492;28;20193;-76
2022/07/11 01:16:24;;;;;;;3.78;1.80;;;;;;;20.06;52.08;97876.75;4946943;28;20362;-76
2022/07/11 01:18:53;;;;;;;2.22;1.90;;;;;;;19.92;52.19;97874.06;4946862;28;20200;-76
2022/07/11 01:21:22;;;;;;;2.53;1.77;;;;;;;19.97;52.35;97878.47;4914439;28;20273;-76
2022/07/11 01:23:49;;;;;;;2.85;1.92;;;;;;;20.01;52.32;97869.69;4929782;28;20164;-76
2022/07/11 01:26:19;;;;;;;2.25;1.50;;;;;;;19.95;52.09;97873.50;4962876;28;20708;-76
2022/07/11 01:28:45;;;;;;;1.80;1.65;;;;;;;20.04;52.04;97864.91;4910882;28;20158;-76
2022/07/11 01:31:11;;;;;;;2.33;1.73;;;;;;;20.01;52.26;97866.25;4929391;28;20258;-76
2022/07/11 01:33:36;;;;;;;2.65;1.88;;;;;;;19.97;52.48;97871.34;4946118;28;20242;-76
2022/07/11 01:36:02;;;;;;;2.17;1.73;;;;;;;19.94;52.59;97861.34;4962709;28;20644;-76
2022/07/11 01:38:28;;;;;;;1.90;1.63;;;;;;;19.94;52.37;97863.97;4931129;28;20212;-76
2022/07/11 01:40:54;;;;;;;2.30;1.80;;;;;;;20.00;51.93;97867.34;4952211;28;20268;-76
2022/07/11 01:43:19;;;;;;;2.05;1.55;;;;;;;19.96;52.15;97856.56;4944673;28;20275;-76
2022/07/11 01:45:44;;;;;;;3.50;1.88;;;;;;;19.94;52.53;97856.03;4944214;28;20606;-76
2022/07/11 01:48:10;;;;;;;1.63;1.52;;;;;;;19.89;52.71;97853.47;4945326;28;20283;-76
2022/07/11 01:50:49;;;;;;;2.30;1.70;;;;;;;19.79;52.75;97859.72;4960907;28;20351;-76
2022/07/11 01:53:14;;;;;;;2.10;1.73;;;;;;;19.86;52.72;97854.09;4945754;28;20238;-76
2022/07/11 01:55:40;;;;;;;2.72;1.80;;;;;;;19.81;53.03;97856.81;4929097;28;20219;-76
2022/07/11 01:58:05;;;;;;;1.67;1.55;;;;;;;19.86;52.87;97859.38;4946087;28;20203;-76
2022/07/11 02:00:31;;;;;;;2.67;1.70;;;;;;;19.83;52.87;97865.22;4928908;28;20195;-76
2022/07/11 02:02:56;;;;;;;3.00;1.80;;;;;;;19.86;52.47;97867.28;4946933;28;20655;-76
2022/07/11 02:05:22;;;;;;;2.65;2.45;;;;;;;19.87;52.74;97855.63;4930478;28;20258;-76
2022/07/11 02:10:31;;;;;;;2.28;1.70;;;;;;;19.92;53.21;97858.19;4946844;28;20295;-76
2022/07/11 02:12:58;;;;;;;2.20;2.00;;;;;;;19.88;53.03;97857.22;4946275;28;20295;-76
2022/07/11 02:15:25;;;;;;;2.35;1.77;;;;;;;19.83;53.51;97850.13;4945635;28;20304;-76
2022/07/11 02:17:51;;;;;;;2.30;1.80;;;;;;;19.89;53.22;97853.47;4945630;28;20211;-76
2022/07/11 02:20:17;;;;;;;2.25;2.05;;;;;;;19.88;53.24;97856.41;4960401;28;20755;-76
2022/07/11 02:22:43;;;;;;;1.92;1.73;;;;;;;19.88;52.85;97851.13;4961705;28;20388;-76
2022/07/11 02:25:08;;;;;;;3.08;1.92;;;;;;;19.87;52.48;97850.34;4944965;28;20649;-76
2022/07/11 02:27:34;;;;;;;2.17;1.70;;;;;;;19.90;52.70;97847.13;4928881;28;20196;-76
2022/07/11 02:30:00;;;;;;;2.60;2.05;;;;;;;19.92;52.95;97847.63;4944887;28;20246;-76
2022/07/11 02:32:25;;;;;;;2.05;1.75;;;;;;;19.93;53.00;97843.91;4929121;28;20290;-76
2022/07/11 02:34:50;;;;;;;2.85;1.80;;;;;;;19.89;53.20;97850.84;4928988;28;20203;-76
2022/07/11 02:37:16;;;;;;;3.20;2.13;;;;;;;19.85;53.29;97836.63;4945156;28;20173;-76
2022/07/11 02:39:41;;;;;;;2.95;1.92;;;;;;;19.88;53.22;97840.56;4944182;28;20204;-76
2022/07/11 02:42:07;;;;;;;2.45;2.25;;;;;;;19.90;53.23;97833.13;4928988;28;20273;-76
2022/07/11 02:44:32;;;;;;;2.35;2.15;;;;;;;19.89;53.03;97836.84;4941859;28;20615;-76
2022/07/11 02:46:58;;;;;;;1.70;1.60;;;;;;;19.87;53.51;97842.41;4944833;28;20215;-76
2022/07/11 02:49:23;;;;;;;2.10;1.90;;;;;;;19.81;53.51;97836.44;4946293;28;20351;-76
2022/07/11 02:51:49;;;;;;;2.20;1.95;;;;;;;19.87;53.41;97839.00;4961180;28;20145;-76
2022/07/11 02:54:14;;;;;;;2.58;2.03;;;;;;;19.81;53.51;97841.72;4944693;28;20183;-76
2022/07/11 02:56:40;;;;;;;2.30;2.10;;;;;;;19.77;53.59;97845.22;4944680;28;20275;-76
2022/07/11 02:59:05;;;;;;;2.03;1.83;;;;;;;19.79;53.80;97843.06;4943842;28;20215;-76
2022/07/11 03:01:31;;;;;;;2.78;2.13;;;;;;;19.80;53.76;97845.44;4944585;28;20204;-76
2022/07/11 03:03:56;;;;;;;2.15;2.00;;;;;;;19.82;53.62;97848.56;4928216;28;20665;-76
2022/07/11 03:06:22;;;;;;;2.70;2.40;;;;;;;19.80;53.63;97842.78;4946439;28;20125;-76
2022/07/11 03:08:48;;;;;;;2.30;2.10;;;;;;;19.80;53.89;97845.44;4946300;28;20594;-76
2022/07/11 03:11:13;;;;;;;3.33;2.28;;;;;;;19.80;53.65;97849.94;4960832;28;20215;-76
2022/07/11 03:13:39;;;;;;;3.13;2.20;;;;;;;19.76;53.91;97854.22;4944667;28;20183;-76
2022/07/11 03:16:05;;;;;;;2.75;2.00;;;;;;;19.77;53.87;97851.28;4946204;28;20641;-76
2022/07/11 03:18:30;;;;;;;3.33;2.20;;;;;;;19.79;53.75;97848.34;4944323;28;20649;-76
2022/07/11 03:20:55;;;;;;;3.60;2.17;;;;;;;19.77;54.10;97845.22;4928321;28;20680;-76
2022/07/11 03:23:21;;;;;;;3.42;2.17;;;;;;;19.77;54.31;97855.78;4960671;28;20212;-76
2022/07/11 03:25:46;;;;;;;2.47;2.05;;;;;;;19.73;54.40;97847.63;4944254;28;20176;-76
2022/07/11 03:28:12;;;;;;;2.63;2.42;;;;;;;19.70;54.18;97845.53;4928374;28;20114;-76
2022/07/11 03:30:37;;;;;;;2.80;1.77;;;;;;;19.73;54.25;97858.19;4944168;28;20187;-76
2022/07/11 03:33:03;;;;;;;2.58;2.38;;;;;;;19.71;54.03;97849.78;4950312;28;20301;-76
2022/07/11 03:35:40;;;;;;;2.33;2.10;;;;;;;19.71;54.18;97846.34;4964897;28;20329;-76
2022/07/11 03:38:06;;;;;;;3.00;2.13;;;;;;;19.71;54.28;97856.91;4948248;28;20389;-76
2022/07/11 03:40:31;;;;;;;2.58;2.38;;;;;;;19.65;53.99;97854.34;4947579;28;20278;-76
2022/07/11 03:42:57;;;;;;;2.58;2.33;;;;;;;19.65;53.81;97854.34;4948388;28;20276;-75
2022/07/11 03:45:22;;;;;;;3.28;2.47;;;;;;;19.63;53.97;97853.84;4945004;28;20192;-76
2022/07/11 03:47:48;;;;;;;2.60;2.15;;;;;;;19.63;54.20;97856.47;4950021;28;20361;-76
2022/07/11 03:50:14;;;;;;;2.72;2.30;;;;;;;19.69;54.40;97856.41;4947525;28;20224;-76
2022/07/11 03:52:40;;;;;;;3.40;2.47;;;;;;;19.69;54.29;97853.75;4931288;28;20232;-76
2022/07/11 03:55:06;;;;;;;2.05;1.88;;;;;;;19.73;54.39;97852.13;4947650;28;20275;-76
2022/07/11 03:57:33;;;;;;;2.30;2.10;;;;;;;19.70;54.25;97850.06;4964296;28;20723;-76
2022/07/11 03:59:59;;;;;;;2.90;2.35;;;;;;;19.68;54.35;97850.34;4947624;28;20292;-76
2022/07/11 04:02:25;;;;;;;2.28;1.83;;;;;;;19.67;54.58;97855.91;4948660;28;20204;-76
2022/07/11 04:04:50;;;;;;;2.75;1.85;;;;;;;19.66;54.71;97847.19;4932573;28;20792;-76
2022/07/11 04:07:16;;;;;;;3.35;2.20;;;;;;;19.68;54.74;97850.34;4964536;28;20614;-76
2022/07/11 04:09:41;;;;;;;4.22;2.40;;;;;;;19.64;55.03;97844.84;4949656;28;20599;-76
2022/07/11 04:12:07;;;;;;;2.58;2.15;;;;;;;19.66;54.59;97849.84;4931543;28;20242;-76
2022/07/11 04:14:33;;;;;;;2.10;1.90;;;;;;;19.70;54.43;97844.78;4931609;28;20204;-76
2022/07/11 04:16:58;;;;;;;3.45;2.45;;;;;;;19.74;54.10;97837.84;4947444;28;20208;-76
2022/07/11 04:19:23;;;;;;;4.03;2.15;;;;;;;19.79;54.14;97843.88;4963897;28;20212;-76
2022/07/11 04:21:49;;;;;;;3.92;2.42;;;;;;;19.81;54.21;97840.94;4963959;28;20267;-76
2022/07/11 04:24:18;;;;;;;2.80;2.05;;;;;;;19.72;54.72;97848.69;4947240;28;20196;-76
2022/07/11 04:26:43;;;;;;;2.83;2.30;;;;;;;19.81;54.89;97840.94;4963988;28;20153;-76
2022/07/11 04:29:09;;;;;;;2.72;2.33;;;;;;;19.83;55.18;97838.78;4947268;28;20653;-76
2022/07/11 04:31:34;;;;;;;2.83;2.47;;;;;;;19.88;55.26;97844.00;4963779;28;20161;-76
2022/07/11 04:34:00;;;;;;;2.53;2.33;;;;;;;19.88;55.69;97829.97;4947492;28;20271;-76
2022/07/11 04:36:25;;;;;;;2.03;1.88;;;;;;;19.87;55.62;97836.34;4947651;28;20199;-76
2022/07/11 04:38:50;;;;;;;2.95;2.22;;;;;;;19.89;55.57;97832.34;4930763;28;20257;-76
2022/07/11 04:41:16;;;;;;;2.50;2.20;;;;;;;19.94;55.59;97836.75;4948884;28;20169;-76
2022/07/11 04:43:42;;;;;;;2.15;1.95;;;;;;;19.97;55.07;97831.69;4944193;28;20242;-76
2022/07/11 04:46:08;;;;;;;6.28;2.30;;;;;;;20.01;54.55;97835.34;4947494;28;20203;-76
2022/07/11 04:48:33;;;;;;;2.75;2.13;;;;;;;20.01;54.52;97834.53;4930635;28;20187;-76
2022/07/11 04:50:59;;;;;;;2.67;2.47;;;;;;;20.01;54.45;97835.34;4946708;28;20254;-76
2022/07/11 04:53:24;;;;;;;2.47;2.15;;;;;;;20.03;54.19;97837.66;4947270;28;20360;-76
2022/07/11 04:55:50;;;;;;;3.83;2.47;;;;;;;20.08;54.07;97828.88;4946717;28;20198;-76
2022/07/11 04:58:15;;;;;;;2.35;2.00;;;;;;;20.10;54.91;97832.00;4947111;28;20169;-76
2022/07/11 05:00:41;;;;;;;3.60;2.47;;;;;;;20.14;54.46;97846.22;4947414;28;20208;-76
2022/07/11 05:03:06;;;;;;;2.30;2.10;;;;;;;20.17;54.34;97843.00;4945996;28;20603;-76
2022/07/11 05:05:31;;;;;;;3.00;2.63;;;;;;;20.17;54.38;97850.94;4946044;28;20898;-76
2022/07/11 05:07:57;;;;;;;2.47;2.17;;;;;;;20.24;54.38;97843.41;4947575;28;20169;-76
2022/07/11 05:10:23;;;;;;;2.30;2.10;;;;;;;20.24;54.14;97854.00;4928076;28;20341;-76
2022/07/11 05:12:48;;;;;;;2.85;2.13;;;;;;;20.35;53.76;97850.09;4912159;28;20366;-76
2022/07/11 05:15:14;;;;;;;2.33;2.13;;;;;;;20.40;53.89;97846.56;4971085;28;20244;-76
2022/07/11 05:17:40;;;;;;;2.60;2.40;;;;;;;20.47;53.78;97840.91;4945858;28;20172;-76
2022/07/11 05:20:06;;;;;;;4.85;2.17;;;;;;;20.51;53.88;97842.69;4978119;28;20246;-76
2022/07/11 05:22:32;;;;;;;2.78;2.20;;;;;;;20.54;53.81;97850.00;4978847;28;20318;-76
2022/07/11 05:24:57;;;;;;;2.72;2.22;;;;;;;20.57;54.06;97854.72;4954963;28;20256;-76
2022/07/11 05:27:23;;;;;;;3.00;2.35;;;;;;;20.63;53.78;97854.66;4929494;28;20396;-76
2022/07/11 05:29:48;;;;;;;2.33;2.13;;;;;;;20.69;53.74;97854.28;4945392;28;20268;-76
2022/07/11 05:32:14;;;;;;;2.42;2.22;;;;;;;20.73;53.81;97855.28;4945189;28;20634;-76
2022/07/11 05:34:39;;;;;;;2.47;2.25;;;;;;;20.78;53.74;97862.31;4945368;28;20375;-76
2022/07/11 05:37:05;;;;;;;3.85;2.25;;;;;;;20.86;53.46;97858.22;4945358;28;20188;-76
2022/07/11 05:39:30;;;;;;;3.67;2.10;;;;;;;20.94;53.17;97868.88;4944986;28;20162;-76
2022/07/11 05:41:56;;;;;;;3.08;2.40;;;;;;;21.00;53.04;97868.78;4945324;28;20642;-76
2022/07/11 05:44:22;;;;;;;3.00;2.60;;;;;;;21.00;53.14;97860.84;4972783;28;20775;-76
2022/07/11 05:46:47;;;;;;;2.63;2.30;;;;;;;21.07;53.12;97872.59;4945129;28;20276;-76
2022/07/11 05:49:12;;;;;;;2.97;2.50;;;;;;;21.14;52.98;97872.97;4945690;28;20217;-76
2022/07/11 05:51:38;;;;;;;3.03;2.72;;;;;;;21.20;52.78;97878.16;4945925;28;20246;-76
2022/07/11 05:54:04;;;;;;;4.30;2.45;;;;;;;21.24;52.83;97868.56;4961673;28;20293;-76
2022/07/11 05:56:29;;;;;;;2.08;1.90;;;;;;;21.24;52.87;97869.34;4945701;28;20188;-76
2022/07/11 05:58:55;;;;;;;2.83;2.53;;;;;;;21.30;52.60;97867.38;4945613;28;20257;-76
2022/07/11 06:01:22;;;;;;;4.43;2.30;;;;;;;21.36;52.44;97866.19;4961696;28;20357;-76
2022/07/11 06:03:47;;;;;;;3.33;2.30;;;;;;;21.38;52.47;97868.53;4961882;28;20177;-76
2022/07/11 06:06:13;;;;;;;2.38;2.17;;;;;;;21.49;52.36;97875.22;4947643;28;20597;-76
2022/07/11 06:08:41;;;;;;;4.45;2.42;;;;;;;21.53;52.33;97876.19;4947320;28;20300;-76
2022/07/11 06:11:07;;;;;;;4.03;2.03;;;;;;;21.54;52.32;97871.66;4945051;28;20566;-76
2022/07/11 06:13:33;;;;;;;3.42;2.63;;;;;;;21.66;52.29;97885.97;4947316;28;20238;-76
2022/07/11 06:15:59;;;;;;;2.13;1.80;;;;;;;21.84;50.71;97881.56;4947213;28;20277;-76
2022/07/11 06:18:24;;;;;;;4.32;1.70;;;;;;;21.85;51.84;97875.19;4946078;28;20338;-76
2022/07/11 06:20:50;;;;;;;2.95;2.20;;;;;;;21.93;51.42;97872.91;4945159;28;20212;-76
2022/07/11 06:23:16;;;;;;;2.60;1.90;;;;;;;22.02;51.20;97866.59;4928977;28;20204;-76
2022/07/11 06:25:41;;;;;;;3.22;2.22;;;;;;;22.07;51.62;97873.63;4961947;28;20176;-76
2022/07/11 06:28:07;;;;;;;2.88;2.03;;;;;;;22.15;50.79;97877.44;4961619;28;20199;-77
2022/07/11 06:30:32;;;;;;;5.50;2.78;;;;;;;22.17;50.79;97869.94;4961752;28;20119;-76
2022/07/11 06:32:58;;;;;;;3.35;2.33;;;;;;;22.20;50.44;97864.81;4946897;28;20232;-77
2022/07/11 06:35:23;;;;;;;4.53;2.13;;;;;;;22.12;49.71;97870.84;4929943;28;20366;-77
2022/07/11 06:37:49;;;;;;;3.05;2.03;;;;;;;22.38;49.75;97864.94;4945795;28;20184;-76
2022/07/11 06:40:17;;;;;;;2.45;1.70;;;;;;;22.63;48.98;97863.50;4944667;28;20333;-76
2022/07/11 06:42:43;;;;;;;2.28;1.58;;;;;;;22.69;48.40;97861.47;4929176;28;20184;-77
2022/07/11 06:45:09;;;;;;;2.58;1.65;;;;;;;22.99;47.82;97863.28;4942681;28;20342;-76
2022/07/11 06:47:35;;;;;;;2.88;2.10;;;;;;;23.11;47.21;97861.97;4946919;28;20204;-77
2022/07/11 06:50:00;;;;;;;3.63;1.85;;;;;;;23.55;46.15;97858.25;4945109;28;20177;-76
2022/07/11 06:52:26;;;;;;;4.72;2.00;;;;;;;23.76;44.89;97873.59;4946818;28;20754;-76
2022/07/11 06:54:51;;;;;;;2.85;2.10;;;;;;;23.69;46.45;97871.41;4945237;28;20188;-77
2022/07/11 06:57:16;;;;;;;2.78;1.90;;;;;;;23.96;45.17;97872.19;4945270;28;20689;-77
2022/07/11 06:59:42;;;;;;;2.80;1.88;;;;;;;24.02;44.79;97873.59;4955347;28;20361;-77
2022/07/11 07:02:07;;;;;;;2.58;1.80;;;;;;;24.03;44.72;97863.75;4942011;28;20285;-76
2022/07/11 07:04:33;;;;;;;3.35;2.13;;;;;;;24.12;44.83;97859.19;4944790;28;20192;-77
2022/07/11 07:07:00;;;;;;;2.65;1.92;;;;;;;23.83;45.32;97868.59;4946343;28;20146;-76
2022/07/11 07:09:26;;;;;;;2.65;1.52;;;;;;;23.63;45.81;97864.69;4973111;28;20203;-77
2022/07/11 07:11:52;;;;;;;3.88;1.95;;;;;;;23.94;45.51;97866.41;4916842;28;20310;-77
2022/07/11 07:14:17;;;;;;;2.20;1.52;;;;;;;24.49;45.23;97870.97;4930094;28;20730;-77
2022/07/11 07:16:42;;;;;;;1.63;1.52;;;;;;;24.74;43.50;97870.44;4929130;28;20226;-76
2022/07/11 07:19:08;;;;;;;3.03;1.85;;;;;;;24.51;44.10;97867.22;4960971;28;20289;-77
2022/07/11 07:21:33;;;;;;;2.65;2.03;;;;;;;24.61;44.36;97873.00;4929109;28;20272;-76
2022/07/11 07:23:58;;;;;;;1.60;1.45;;;;;;;24.84;43.19;97870.09;4961098;28;20665;-76
2022/07/11 07:26:24;;;;;;;2.60;1.35;;;;;;;24.77;43.38;97875.13;4928447;28;20298;-76
2022/07/11 07:28:50;;;;;;;1.92;1.65;;;;;;;24.70;42.96;97875.63;4946426;28;20203;-76
2022/07/11 07:31:15;;;;;;;3.22;1.73;;;;;;;24.53;43.34;97875.69;4942542;28;20106;-77
2022/07/11 07:33:41;;;;;;;2.17;1.70;;;;;;;24.65;43.50;97873.91;4946676;28;21055;-76
2022/07/11 07:36:06;;;;;;;3.65;1.92;;;;;;;24.76;42.46;97873.56;4928269;28;20258;-76
2022/07/11 07:38:32;;;;;;;2.30;1.50;;;;;;;24.71;42.79;97866.56;4928000;28;20243;-76
2022/07/11 07:40:57;;;;;;;3.53;2.35;;;;;;;24.54;43.58;97871.91;4944270;28;20639;-76
2022/07/11 07:43:23;;;;;;;3.53;2.10;;;;;;;24.68;43.36;97870.63;4942587;28;20633;-76
2022/07/11 07:45:49;;;;;;;2.47;1.50;;;;;;;24.85;42.61;97866.34;4973884;28;20279;-76
2022/07/11 07:48:14;;;;;;;1.77;1.30;;;;;;;25.24;41.22;97859.03;4911281;28;20202;-76
2022/07/11 07:50:39;;;;;;;1.80;1.45;;;;;;;24.92;42.81;97871.16;4960465;28;20671;-76
2022/07/11 07:53:05;;;;;;;2.35;1.40;;;;;;;24.77;42.36;97867.91;4960558;28;20234;-76
2022/07/11 07:55:30;;;;;;;2.75;1.42;;;;;;;24.75;43.07;97866.69;4927637;28;20649;-76
2022/07/11 07:57:55;;;;;;;2.42;1.55;;;;;;;24.80;42.74;97867.28;4940687;28;20256;-76
2022/07/11 08:03:06;;;;;;;1.92;1.20;;;;;;;24.76;43.23;97869.03;4943530;28;20219;-75
2022/07/11 08:05:32;;;;;;;2.30;1.20;;;;;;;24.78;43.10;97858.84;4943712;28;20234;-76
2022/07/11 08:07:58;;;;;;;1.85;1.50;;;;;;;25.00;42.77;97851.66;4943786;28;20639;-77
2022/07/11 08:10:23;;;;;;;2.42;1.48;;;;;;;25.24;43.12;97857.16;4943045;28;20177;-76
2022/07/11 08:12:49;;;;;;;4.20;1.73;;;;;;;25.67;41.78;97857.19;4943409;28;20211;-76
2022/07/11 08:15:14;;;;;;;3.03;1.45;;;;;;;25.68;42.13;97861.44;4942280;28;20711;-76
2022/07/11 08:17:41;;;;;;;1.88;1.15;;;;;;;25.84;41.06;97865.06;4928001;28;20191;-76
2022/07/11 08:20:07;;;;;;;2.45;1.30;;;;;;;25.66;41.81;97863.63;4946577;28;20191;-77
2022/07/11 08:22:32;;;;;;;1.50;1.23;;;;;;;25.55;41.98;97866.72;4931014;28;20648;-76
2022/07/11 08:24:58;;;;;;;1.50;1.40;;;;;;;25.92;40.44;97861.50;4963347;28;20217;-76
2022/07/11 08:27:23;;;;;;;2.33;1.23;;;;;;;26.10;40.20;97862.16;4963747;28;20246;-76
2022/07/11 08:29:48;;;;;;;1.45;0.80;;;;;;;26.16;40.78;97868.06;4946576;28;20348;-76
2022/07/11 08:32:14;;;;;;;1.70;0.98;;;;;;;25.86;40.29;97857.50;4946846;28;20268;-76
2022/07/11 08:34:39;;;;;;;1.17;0.80;;;;;;;25.69;39.77;97857.66;4963647;28;20207;-75
2022/07/11 08:37:05;;;;;;;0.55;0.50;;;;;;;25.62;39.80;97874.19;4946450;28;20303;-76
2022/07/11 08:39:30;;;;;;;0.73;0.55;;;;;;;25.81;39.33;97863.03;4962717;28;20161;-76
2022/07/11 08:41:56;;;;;;;0.93;0.75;;;;;;;25.73;40.00;97866.56;4947065;28;20289;-76
2022/07/11 08:44:23;;;;;;;1.23;0.88;;;;;;;25.04;41.27;97879.25;4944577;28;20269;-76
2022/07/11 08:46:49;;;;;;;0.70;0.70;;;;;;;24.78;41.98;97880.16;4946894;28;20188;-76
2022/07/11 08:49:14;;;;;;;0.80;0.70;;;;;;;25.14;40.84;97867.41;4962252;28;20330;-76
2022/07/11 08:51:41;;;;;;;0.50;0.50;;;;;;;25.47;41.02;97869.44;4946854;28;20180;-76
2022/07/11 08:54:06;;;;;;;0.77;0.63;;;;;;;25.65;40.02;97872.75;4945938;28;20283;-77
2022/07/11 08:56:32;;;;;;;0.60;0.60;;;;;;;25.56;40.64;97876.25;4962827;28;20223;-76
2022/07/11 08:58:59;;;;;;;1.33;0.70;;;;;;;25.52;40.90;97875.34;4962322;28;20649;-76
2022/07/11 09:01:34;;;;;;;1.95;0.90;;;;;;;25.22;41.43;97871.91;4946263;28;20171;-76
2022/07/11 09:04:00;;;;;;;0.90;0.73;;;;;;;25.48;41.13;97877.13;4946497;28;20169;-76
2022/07/11 09:06:26;;;;;;;0.95;0.60;;;;;;;25.49;41.20;97876.00;4962960;28;20195;-76
2022/07/11 09:08:51;;;;;;;0.90;0.57;;;;;;;25.70;40.51;97875.97;4945605;28;20372;-76
2022/07/11 09:11:16;;;;;;;2.00;0.73;;;;;;;25.64;40.20;97873.88;4945966;28;20965;-76
2022/07/11 09:13:42;;;;;;;2.03;0.75;;;;;;;25.85;39.93;97869.28;4946106;28;20741;-76
2022/07/11 09:16:08;;;;;;;0.90;0.90;;;;;;;25.95;40.25;97866.22;4945743;28;20176;-76
2022/07/11 09:18:40;;;;;;;1.48;0.73;;;;;;;26.01;39.93;97871.34;4910762;28;20270;-77
2022/07/11 09:26:42;;;;;;;0.60;0.60;;;;;;;26.08;40.31;97866.25;4948604;28;20162;-76
2022/07/11 09:29:09;;;;;;;1.13;0.90;;;;;;;26.46;39.92;97865.22;4944870;28;20661;-76
2022/07/11 09:31:36;;;;;;;0.95;0.95;;;;;;;26.20;39.14;97871.66;4910378;28;20646;-77
2022/07/11 09:34:03;;;;;;;1.13;0.93;;;;;;;26.25;39.33;97868.78;4958983;28;20176;-76
2022/07/11 09:36:54;;;;;;;1.40;0.82;;;;;;;25.83;40.77;97870.72;4945172;28;20729;-75
2022/07/11 09:39:20;;;;;;;1.10;1.00;;;;;;;25.85;40.19;97868.50;4977059;28;20635;-77
2022/07/11 09:41:47;;;;;;;0.93;0.90;;;;;;;26.18;40.27;97865.84;4928927;28;20281;-76
2022/07/11 09:44:13;;;;;;;0.93;0.80;;;;;;;25.52;41.18;97874.56;4973210;28;20289;-76
2022/07/11 09:46:40;;;;;;;1.20;1.08;;;;;;;25.33;41.34;97875.81;4945682;28;20275;-76
2022/07/11 09:49:07;;;;;;;1.75;1.02;;;;;;;25.32;41.38;97865.47;4928623;28;20196;-76
2022/07/11 09:51:33;;;;;;;1.73;1.10;;;;;;;25.67;41.34;97863.31;4928986;28;20288;-76
2022/07/11 09:53:59;;;;;;;1.02;0.93;;;;;;;26.07;40.49;97864.72;4961365;28;20282;-76
2022/07/11 09:56:39;;;;;;;1.02;1.00;;;;;;;25.54;41.20;97875.03;4928868;28;20273;-76
2022/07/11 09:59:05;;;;;;;1.55;1.10;;;;;;;25.61;41.38;97873.38;4944493;28;20199;-77
2022/07/11 10:01:30;;;;;;;1.52;1.05;;;;;;;25.94;40.56;97872.69;4977910;28;20306;-77
2022/07/11 10:03:56;;;;;;;1.77;1.10;;;;;;;25.50;41.29;97877.56;4945308;28;20298;-75
2022/07/11 10:06:22;;;;;;;1.10;0.98;;;;;;;25.21;41.71;97868.47;4961907;28;20208;-75
2022/07/11 10:08:50;;;;;;;1.67;1.00;;;;;;;25.50;41.60;97872.22;4977739;28;20195;-76
2022/07/11 10:11:15;;;;;;;2.75;1.05;;;;;;;25.69;41.80;97871.00;4912926;28;20192;-76
2022/07/11 10:13:41;;;;;;;1.92;1.27;;;;;;;25.48;41.79;97870.97;4945092;28;20211;-76
2022/07/11 10:16:48;;;;;;;1.73;1.48;;;;;;;25.11;42.33;97876.84;4928741;28;20590;-75
2022/07/11 10:19:21;;;;;;;2.08;1.50;;;;;;;25.00;42.94;97867.66;4933199;28;20188;-76
2022/07/11 10:22:18;;;;;;;1.77;1.52;;;;;;;24.97;42.66;97882.41;4928766;28;20188;-76
2022/07/11 10:24:56;;;;;;;2.58;1.13;;;;;;;24.83;42.92;97879.97;4944767;28;20203;-76
2022/07/11 10:27:52;;;;;;;1.80;1.00;;;;;;;24.88;42.94;97880.88;4944780;28;20196;-76
2022/07/11 10:30:47;;;;;;;1.58;1.40;;;;;;;24.89;43.24;97877.13;4938840;28;20785;-76
2022/07/11 10:33:14;;;;;;;2.83;1.47;;;;;;;25.27;42.37;97878.97;4944302;28;20514;-77
2022/07/11 10:35:44;;;;;;;1.30;1.15;;;;;;;25.27;42.78;97884.31;4961205;28;20489;-77
2022/07/11 10:38:10;;;;;;;1.67;1.58;;;;;;;25.41;43.10;97882.16;4944428;28;20199;-76
2022/07/11 10:40:58;;;;;;;1.40;1.30;;;;;;;25.20;43.32;97880.22;4943207;28;20317;-76
2022/07/11 10:43:29;;;;;;;1.70;1.40;;;;;;;25.18;42.87;97885.09;4907140;28;20215;-76
2022/07/11 10:46:06;;;;;;;2.05;1.65;;;;;;;25.15;42.80;97877.75;4946289;28;20157;-76
2022/07/11 10:48:34;;;;;;;1.80;1.48;;;;;;;25.64;41.95;97882.63;4927430;28;20208;-76
2022/07/11 10:51:01;;;;;;;2.40;1.85;;;;;;;25.85;42.85;97876.50;4944255;28;20184;-75
2022/07/11 10:53:31;;;;;;;1.80;1.67;;;;;;;26.10;41.40;97877.41;4928062;28;20231;-76
2022/07/11 10:56:20;;;;;;;2.08;1.90;;;;;;;26.15;42.32;97877.19;4944174;28;20271;-76
2022/07/11 10:59:13;;;;;;;2.00;1.60;;;;;;;26.37;40.59;97877.91;4945309;28;20191;-77
2022/07/11 11:02:07;;;;;;;1.80;1.70;;;;;;;26.24;40.58;97874.44;4959030;28;20192;-76
2022/07/11 11:04:58;;;;;;;2.13;1.65;;;;;;;26.57;40.08;97863.69;4944351;28;20314;-76
2022/07/11 11:07:28;;;;;;;2.85;1.50;;;;;;;26.69;39.08;97862.94;4944024;28;20257;-76
2022/07/11 11:09:53;;;;;;;1.70;1.60;;;;;;;26.59;40.08;97863.34;4927404;28;20584;-76
2022/07/11 11:12:20;;;;;;;1.92;1.65;;;;;;;26.33;40.37;97880.44;4927867;28;20138;-76
2022/07/11 11:14:48;;;;;;;1.80;1.48;;;;;;;26.10;40.16;97874.75;4960101;28;20678;-76
2022/07/11 11:17:35;;;;;;;2.40;2.00;;;;;;;26.25;40.06;97878.66;4939826;28;20628;-76
2022/07/11 11:20:02;;;;;;;2.63;1.65;;;;;;;26.34;39.64;97874.00;4970965;28;20260;-76
2022/07/11 11:22:28;;;;;;;1.85;1.63;;;;;;;26.49;39.94;97873.38;4976933;28;20285;-76
2022/07/11 11:24:56;;;;;;;1.65;1.50;;;;;;;26.23;40.05;97870.97;4927699;28;20613;-76
2022/07/11 11:27:22;;;;;;;1.95;1.85;;;;;;;26.46;39.98;97868.69;4919365;28;20180;-76
2022/07/11 11:29:53;;;;;;;2.08;1.85;;;;;;;26.38;40.00;97871.47;4912756;28;20219;-76
2022/07/11 11:32:20;;;;;;;2.00;1.50;;;;;;;26.38;40.04;97874.91;4943952;28;20293;-76
2022/07/11 11:34:46;;;;;;;1.88;1.77;;;;;;;26.23;40.95;97862.19;4927875;28;20246;-76
2022/07/11 11:37:14;;;;;;;2.42;2.22;;;;;;;25.97;41.29;97863.22;4927605;28;20189;-76
2022/07/11 11:39:40;;;;;;;2.38;2.13;;;;;;;25.98;41.43;97867.47;4942934;28;20192;-76
2022/07/11 11:42:16;;;;;;;2.35;2.15;;;;;;;25.75;41.03;97864.34;4943873;28;20379;-76
2022/07/11 11:44:50;;;;;;;1.85;1.75;;;;;;;26.35;41.04;97854.97;4958196;28;20173;-76